Hovedside
METAR-TAF:

METAR-TAF

Lufthavner :

Kristiansand lufthavn. Kjevik

Kristiansand, Norge

breddegrad: 58-12N, lengdegrad: 008-05E, høyde over havet: 1 m

Gjeldene værobservasjon

Denne rapporten ble laget for 41 minutter siden, klokken 01:20 UTC
Vind 6 kt fra Nordøst
Temperatur 3°C
Luftfuktighet 93%
Trykk 981 hPa
Sikt 10 km eller mer

METAR: ENCN 140120Z AUTO 05006KT 9999 FEW021/// BKN028/// BKN039/// 03/02 Q0981

Tid: 03:01 (02:01 UTC)

Varsel

Denne rapporten ble laget for 9 timer og 1 minutter siden, klokken 17:00 UTC
Varsel gyldig fra 13. klokken 18 UTC til 13. klokken 22 UTC
Vind 8 kt fra Øst
Sikt 10 km eller mer
Få skyer i en høyde av 2000 ft, Tårnskyer (cumulus).
Brutte skyer i en høyde av 2500 ft
lette regnbyger

TAF: ENCN 131700Z 1318/1322 10008KT 9999 -SHRA FEW020TCU BKN025

Værobservasjoner og værvarsel for over 4000 flyplasser (METAR- og TAF-rapporter).

Tilgjengelige stasjoner er representert av de røde og gule prikkene på kartet.

Hold musepekeren over prikken for å se navnet på stasjonen.

Klikk så for å se værobservasjoner og -varsler.

For å forandre kartet kan du klikke på den grønne knappen med svart kryss for å zoome inn, på den grønne knappen med strek for å zoome ut, eller på de grønne pilene for å se tilstøtende kart.


METAR-TAF: